sensor_id;sensor_type;location;lat;lon;timestamp;temperature;humidity
12604;DHT22;6367;52.508;13.284;2023-06-04T00:00:10;18.10;50.60
12604;DHT22;6367;52.508;13.284;2023-06-04T00:02:36;18.10;50.50
12604;DHT22;6367;52.508;13.284;2023-06-04T00:05:02;18.10;50.30
12604;DHT22;6367;52.508;13.284;2023-06-04T00:07:27;18.10;50.50
12604;DHT22;6367;52.508;13.284;2023-06-04T00:09:53;18.10;50.60
12604;DHT22;6367;52.508;13.284;2023-06-04T00:12:19;18.10;50.30
12604;DHT22;6367;52.508;13.284;2023-06-04T00:14:44;18.10;50.30
12604;DHT22;6367;52.508;13.284;2023-06-04T00:17:10;18.10;50.50
12604;DHT22;6367;52.508;13.284;2023-06-04T00:19:38;18.10;50.70
12604;DHT22;6367;52.508;13.284;2023-06-04T00:22:05;18.00;50.90
12604;DHT22;6367;52.508;13.284;2023-06-04T00:24:31;18.10;51.00
12604;DHT22;6367;52.508;13.284;2023-06-04T00:26:58;18.00;51.00
12604;DHT22;6367;52.508;13.284;2023-06-04T00:29:23;18.00;51.00
12604;DHT22;6367;52.508;13.284;2023-06-04T00:31:49;18.00;51.30
12604;DHT22;6367;52.508;13.284;2023-06-04T00:34:16;18.00;51.60
12604;DHT22;6367;52.508;13.284;2023-06-04T00:36:42;17.90;51.80
12604;DHT22;6367;52.508;13.284;2023-06-04T00:39:07;18.00;52.10
12604;DHT22;6367;52.508;13.284;2023-06-04T00:41:33;18.00;52.30
12604;DHT22;6367;52.508;13.284;2023-06-04T00:43:58;18.10;52.40
12604;DHT22;6367;52.508;13.284;2023-06-04T00:46:27;18.00;52.50
12604;DHT22;6367;52.508;13.284;2023-06-04T00:48:54;18.00;52.60
12604;DHT22;6367;52.508;13.284;2023-06-04T00:51:20;17.80;52.80
12604;DHT22;6367;52.508;13.284;2023-06-04T00:53:48;17.80;53.00
12604;DHT22;6367;52.508;13.284;2023-06-04T00:56:13;17.70;53.20
12604;DHT22;6367;52.508;13.284;2023-06-04T00:58:39;17.60;53.70
12604;DHT22;6367;52.508;13.284;2023-06-04T01:01:15;17.60;53.90
12604;DHT22;6367;52.508;13.284;2023-06-04T01:03:47;17.60;54.30
12604;DHT22;6367;52.508;13.284;2023-06-04T01:08:49;17.60;54.50
12604;DHT22;6367;52.508;13.284;2023-06-04T01:11:15;17.60;54.60
12604;DHT22;6367;52.508;13.284;2023-06-04T01:13:41;17.50;55.00
12604;DHT22;6367;52.508;13.284;2023-06-04T01:16:07;17.50;55.20
12604;DHT22;6367;52.508;13.284;2023-06-04T01:18:36;17.50;55.20
12604;DHT22;6367;52.508;13.284;2023-06-04T01:21:07;17.40;55.30
12604;DHT22;6367;52.508;13.284;2023-06-04T01:23:39;17.30;55.40
12604;DHT22;6367;52.508;13.284;2023-06-04T01:26:09;17.30;55.70
12604;DHT22;6367;52.508;13.284;2023-06-04T01:28:36;17.20;55.70
12604;DHT22;6367;52.508;13.284;2023-06-04T01:31:04;17.20;55.80
12604;DHT22;6367;52.508;13.284;2023-06-04T01:33:33;17.20;56.00
12604;DHT22;6367;52.508;13.284;2023-06-04T01:35:59;17.20;56.60
12604;DHT22;6367;52.508;13.284;2023-06-04T01:38:25;17.10;56.00
12604;DHT22;6367;52.508;13.284;2023-06-04T01:40:51;17.10;56.20
12604;DHT22;6367;52.508;13.284;2023-06-04T01:43:18;17.00;56.30
12604;DHT22;6367;52.508;13.284;2023-06-04T01:45:44;17.00;56.50
12604;DHT22;6367;52.508;13.284;2023-06-04T01:48:10;17.00;56.60
12604;DHT22;6367;52.508;13.284;2023-06-04T01:50:35;16.90;56.70
12604;DHT22;6367;52.508;13.284;2023-06-04T01:53:01;16.90;56.80
12604;DHT22;6367;52.508;13.284;2023-06-04T01:55:27;16.90;57.00
12604;DHT22;6367;52.508;13.284;2023-06-04T01:57:55;16.80;57.10
12604;DHT22;6367;52.508;13.284;2023-06-04T02:00:20;16.80;57.20
12604;DHT22;6367;52.508;13.284;2023-06-04T02:02:46;16.80;57.30
12604;DHT22;6367;52.508;13.284;2023-06-04T02:05:15;16.80;57.40
12604;DHT22;6367;52.508;13.284;2023-06-04T02:07:43;16.80;57.40
12604;DHT22;6367;52.508;13.284;2023-06-04T02:10:11;16.80;57.60
12604;DHT22;6367;52.508;13.284;2023-06-04T02:12:39;16.80;57.60
12604;DHT22;6367;52.508;13.284;2023-06-04T02:15:06;16.70;57.80
12604;DHT22;6367;52.508;13.284;2023-06-04T02:17:32;16.70;57.90
12604;DHT22;6367;52.508;13.284;2023-06-04T02:19:59;16.60;58.00
12604;DHT22;6367;52.508;13.284;2023-06-04T02:22:25;16.60;58.20
12604;DHT22;6367;52.508;13.284;2023-06-04T02:24:51;16.80;58.40
12604;DHT22;6367;52.508;13.284;2023-06-04T02:27:17;16.50;58.30
12604;DHT22;6367;52.508;13.284;2023-06-04T02:29:43;16.60;58.70
12604;DHT22;6367;52.508;13.284;2023-06-04T02:32:09;16.50;58.70
12604;DHT22;6367;52.508;13.284;2023-06-04T02:34:35;16.50;58.80
12604;DHT22;6367;52.508;13.284;2023-06-04T02:37:01;16.50;58.90
12604;DHT22;6367;52.508;13.284;2023-06-04T02:39:26;16.50;59.00
12604;DHT22;6367;52.508;13.284;2023-06-04T02:41:52;16.40;59.00
12604;DHT22;6367;52.508;13.284;2023-06-04T02:44:18;16.40;59.10
12604;DHT22;6367;52.508;13.284;2023-06-04T02:46:44;16.40;59.20
12604;DHT22;6367;52.508;13.284;2023-06-04T02:49:10;16.30;59.20
12604;DHT22;6367;52.508;13.284;2023-06-04T02:51:40;16.30;59.30
12604;DHT22;6367;52.508;13.284;2023-06-04T02:54:06;16.30;59.40
12604;DHT22;6367;52.508;13.284;2023-06-04T02:56:33;16.30;59.50
12604;DHT22;6367;52.508;13.284;2023-06-04T02:58:58;16.30;59.60
12604;DHT22;6367;52.508;13.284;2023-06-04T03:01:25;16.20;59.60
12604;DHT22;6367;52.508;13.284;2023-06-04T03:03:52;15.60;59.30
12604;DHT22;6367;52.508;13.284;2023-06-04T03:06:20;16.20;59.90
12604;DHT22;6367;52.508;13.284;2023-06-04T03:08:49;16.10;60.00
12604;DHT22;6367;52.508;13.284;2023-06-04T03:11:16;16.10;60.10
12604;DHT22;6367;52.508;13.284;2023-06-04T03:13:42;16.10;60.20
12604;DHT22;6367;52.508;13.284;2023-06-04T03:16:08;16.10;60.30
12604;DHT22;6367;52.508;13.284;2023-06-04T03:18:36;16.10;60.40
12604;DHT22;6367;52.508;13.284;2023-06-04T03:21:02;16.10;60.50
12604;DHT22;6367;52.508;13.284;2023-06-04T03:23:28;16.10;60.60
12604;DHT22;6367;52.508;13.284;2023-06-04T03:25:53;16.10;60.70
12604;DHT22;6367;52.508;13.284;2023-06-04T03:28:19;16.10;60.90
12604;DHT22;6367;52.508;13.284;2023-06-04T03:30:45;16.10;61.20
12604;DHT22;6367;52.508;13.284;2023-06-04T03:33:11;16.00;61.50
12604;DHT22;6367;52.508;13.284;2023-06-04T03:35:36;16.00;61.60
12604;DHT22;6367;52.508;13.284;2023-06-04T03:38:02;15.90;61.80
12604;DHT22;6367;52.508;13.284;2023-06-04T03:40:28;15.80;62.10
12604;DHT22;6367;52.508;13.284;2023-06-04T03:42:53;15.80;62.20
12604;DHT22;6367;52.508;13.284;2023-06-04T03:45:19;15.80;62.40
12604;DHT22;6367;52.508;13.284;2023-06-04T03:47:46;15.90;62.30
12604;DHT22;6367;52.508;13.284;2023-06-04T03:50:11;16.00;62.40
12604;DHT22;6367;52.508;13.284;2023-06-04T03:52:37;15.90;62.20
12604;DHT22;6367;52.508;13.284;2023-06-04T03:55:03;16.00;62.40
12604;DHT22;6367;52.508;13.284;2023-06-04T03:57:28;16.00;62.40
12604;DHT22;6367;52.508;13.284;2023-06-04T03:59:54;16.00;62.50
12604;DHT22;6367;52.508;13.284;2023-06-04T04:02:20;16.00;62.40
12604;DHT22;6367;52.508;13.284;2023-06-04T04:04:46;16.10;62.50
12604;DHT22;6367;52.508;13.284;2023-06-04T04:07:12;16.10;62.70
12604;DHT22;6367;52.508;13.284;2023-06-04T04:09:37;15.90;62.80
12604;DHT22;6367;52.508;13.284;2023-06-04T04:12:04;15.90;63.20
12604;DHT22;6367;52.508;13.284;2023-06-04T04:14:29;15.90;63.30
12604;DHT22;6367;52.508;13.284;2023-06-04T04:16:55;16.10;63.30
12604;DHT22;6367;52.508;13.284;2023-06-04T04:19:20;16.10;63.30
12604;DHT22;6367;52.508;13.284;2023-06-04T04:21:47;16.00;63.60
12604;DHT22;6367;52.508;13.284;2023-06-04T04:24:25;16.10;63.50
12604;DHT22;6367;52.508;13.284;2023-06-04T04:26:51;16.10;63.80
12604;DHT22;6367;52.508;13.284;2023-06-04T04:29:20;16.00;64.10
12604;DHT22;6367;52.508;13.284;2023-06-04T04:31:51;16.00;64.10
12604;DHT22;6367;52.508;13.284;2023-06-04T04:34:17;16.10;64.50
12604;DHT22;6367;52.508;13.284;2023-06-04T04:36:46;16.10;64.40
12604;DHT22;6367;52.508;13.284;2023-06-04T04:39:24;16.10;64.40
12604;DHT22;6367;52.508;13.284;2023-06-04T04:41:51;16.20;64.30
12604;DHT22;6367;52.508;13.284;2023-06-04T04:44:17;16.30;64.40
12604;DHT22;6367;52.508;13.284;2023-06-04T04:46:42;16.30;64.30
12604;DHT22;6367;52.508;13.284;2023-06-04T04:49:08;16.30;64.60
12604;DHT22;6367;52.508;13.284;2023-06-04T04:51:34;16.50;64.20
12604;DHT22;6367;52.508;13.284;2023-06-04T04:54:00;16.40;64.30
12604;DHT22;6367;52.508;13.284;2023-06-04T04:56:26;16.40;64.60
12604;DHT22;6367;52.508;13.284;2023-06-04T04:58:52;16.50;64.40
12604;DHT22;6367;52.508;13.284;2023-06-04T05:01:18;16.50;64.70
12604;DHT22;6367;52.508;13.284;2023-06-04T05:03:44;16.60;64.80
12604;DHT22;6367;52.508;13.284;2023-06-04T05:06:10;16.60;64.90
12604;DHT22;6367;52.508;13.284;2023-06-04T05:08:36;16.50;64.90
12604;DHT22;6367;52.508;13.284;2023-06-04T05:11:01;16.60;65.10
12604;DHT22;6367;52.508;13.284;2023-06-04T05:13:27;16.60;64.80
12604;DHT22;6367;52.508;13.284;2023-06-04T05:15:52;16.70;64.90
12604;DHT22;6367;52.508;13.284;2023-06-04T05:18:19;16.70;64.60
12604;DHT22;6367;52.508;13.284;2023-06-04T05:20:58;16.80;64.60
12604;DHT22;6367;52.508;13.284;2023-06-04T05:23:26;16.90;64.60
12604;DHT22;6367;52.508;13.284;2023-06-04T05:25:51;17.10;64.20
12604;DHT22;6367;52.508;13.284;2023-06-04T05:28:17;17.00;64.40
12604;DHT22;6367;52.508;13.284;2023-06-04T05:30:43;17.10;64.30
12604;DHT22;6367;52.508;13.284;2023-06-04T05:33:09;17.00;64.60
12604;DHT22;6367;52.508;13.284;2023-06-04T05:35:46;17.20;64.40
12604;DHT22;6367;52.508;13.284;2023-06-04T05:38:11;17.20;64.50
12604;DHT22;6367;52.508;13.284;2023-06-04T05:40:41;17.30;64.50
12604;DHT22;6367;52.508;13.284;2023-06-04T05:43:06;17.30;64.40
12604;DHT22;6367;52.508;13.284;2023-06-04T05:45:32;17.40;64.40
12604;DHT22;6367;52.508;13.284;2023-06-04T05:47:58;17.50;64.10
12604;DHT22;6367;52.508;13.284;2023-06-04T05:50:24;17.60;64.20
12604;DHT22;6367;52.508;13.284;2023-06-04T05:52:50;17.70;64.10
12604;DHT22;6367;52.508;13.284;2023-06-04T05:55:16;17.80;63.90
12604;DHT22;6367;52.508;13.284;2023-06-04T05:57:42;17.90;63.50
12604;DHT22;6367;52.508;13.284;2023-06-04T06:00:08;17.90;63.20
12604;DHT22;6367;52.508;13.284;2023-06-04T06:02:37;18.10;63.40
12604;DHT22;6367;52.508;13.284;2023-06-04T06:05:05;18.20;63.20
12604;DHT22;6367;52.508;13.284;2023-06-04T06:07:33;18.30;63.00
12604;DHT22;6367;52.508;13.284;2023-06-04T06:09:59;18.40;63.30
12604;DHT22;6367;52.508;13.284;2023-06-04T06:12:25;18.40;63.10
12604;DHT22;6367;52.508;13.284;2023-06-04T06:14:50;18.60;62.90
12604;DHT22;6367;52.508;13.284;2023-06-04T06:17:16;18.90;62.50
12604;DHT22;6367;52.508;13.284;2023-06-04T06:19:42;19.00;61.30
12604;DHT22;6367;52.508;13.284;2023-06-04T06:22:08;19.10;60.70
12604;DHT22;6367;52.508;13.284;2023-06-04T06:24:33;19.20;59.80
12604;DHT22;6367;52.508;13.284;2023-06-04T06:26:59;19.20;59.80
12604;DHT22;6367;52.508;13.284;2023-06-04T06:29:25;19.40;59.20
12604;DHT22;6367;52.508;13.284;2023-06-04T06:31:51;19.50;58.50
12604;DHT22;6367;52.508;13.284;2023-06-04T06:34:16;19.60;56.50
12604;DHT22;6367;52.508;13.284;2023-06-04T06:36:42;19.90;55.80
12604;DHT22;6367;52.508;13.284;2023-06-04T06:39:08;19.90;54.70
12604;DHT22;6367;52.508;13.284;2023-06-04T06:41:34;20.00;55.50
12604;DHT22;6367;52.508;13.284;2023-06-04T06:44:00;20.10;55.20
12604;DHT22;6367;52.508;13.284;2023-06-04T06:46:25;20.20;54.40
12604;DHT22;6367;52.508;13.284;2023-06-04T06:48:51;20.30;53.40
12604;DHT22;6367;52.508;13.284;2023-06-04T06:51:17;20.30;53.00
12604;DHT22;6367;52.508;13.284;2023-06-04T06:53:43;20.50;53.20
12604;DHT22;6367;52.508;13.284;2023-06-04T06:56:09;20.70;53.10
12604;DHT22;6367;52.508;13.284;2023-06-04T06:58:42;21.20;53.20
12604;DHT22;6367;52.508;13.284;2023-06-04T07:01:07;21.80;52.20
12604;DHT22;6367;52.508;13.284;2023-06-04T07:03:33;22.50;51.40
12604;DHT22;6367;52.508;13.284;2023-06-04T07:06:00;23.00;50.70
12604;DHT22;6367;52.508;13.284;2023-06-04T07:08:25;23.20;50.10
12604;DHT22;6367;52.508;13.284;2023-06-04T07:10:51;23.30;49.60
12604;DHT22;6367;52.508;13.284;2023-06-04T07:13:17;23.30;50.00
12604;DHT22;6367;52.508;13.284;2023-06-04T07:15:42;23.30;49.60
12604;DHT22;6367;52.508;13.284;2023-06-04T07:18:08;23.20;49.30
12604;DHT22;6367;52.508;13.284;2023-06-04T07:20:33;23.20;48.50
12604;DHT22;6367;52.508;13.284;2023-06-04T07:22:59;23.20;48.40
12604;DHT22;6367;52.508;13.284;2023-06-04T07:25:25;23.20;49.70
12604;DHT22;6367;52.508;13.284;2023-06-04T07:27:51;23.20;49.30
12604;DHT22;6367;52.508;13.284;2023-06-04T07:30:16;23.30;50.20
12604;DHT22;6367;52.508;13.284;2023-06-04T07:32:47;23.30;47.90
12604;DHT22;6367;52.508;13.284;2023-06-04T07:35:12;23.30;47.60
12604;DHT22;6367;52.508;13.284;2023-06-04T07:37:38;23.20;47.20
12604;DHT22;6367;52.508;13.284;2023-06-04T07:40:04;23.20;47.20
12604;DHT22;6367;52.508;13.284;2023-06-04T07:42:30;23.20;47.00
12604;DHT22;6367;52.508;13.284;2023-06-04T07:44:56;23.00;46.70
12604;DHT22;6367;52.508;13.284;2023-06-04T07:47:22;23.10;46.00
12604;DHT22;6367;52.508;13.284;2023-06-04T07:49:47;23.10;46.00
12604;DHT22;6367;52.508;13.284;2023-06-04T07:52:13;23.00;46.20
12604;DHT22;6367;52.508;13.284;2023-06-04T07:54:40;23.00;45.40
12604;DHT22;6367;52.508;13.284;2023-06-04T07:57:07;23.00;45.70
12604;DHT22;6367;52.508;13.284;2023-06-04T07:59:34;22.70;46.60
12604;DHT22;6367;52.508;13.284;2023-06-04T08:02:02;22.60;47.30
12604;DHT22;6367;52.508;13.284;2023-06-04T08:04:31;22.70;48.00
12604;DHT22;6367;52.508;13.284;2023-06-04T08:06:57;22.70;46.50
12604;DHT22;6367;52.508;13.284;2023-06-04T08:09:23;22.70;46.90
12604;DHT22;6367;52.508;13.284;2023-06-04T08:11:48;22.60;45.90
12604;DHT22;6367;52.508;13.284;2023-06-04T08:14:14;22.60;46.50
12604;DHT22;6367;52.508;13.284;2023-06-04T08:16:40;22.70;46.50
12604;DHT22;6367;52.508;13.284;2023-06-04T08:19:06;22.70;46.70
12604;DHT22;6367;52.508;13.284;2023-06-04T08:21:33;22.80;46.10
12604;DHT22;6367;52.508;13.284;2023-06-04T08:23:59;22.80;46.50
12604;DHT22;6367;52.508;13.284;2023-06-04T08:26:24;22.90;46.70
12604;DHT22;6367;52.508;13.284;2023-06-04T08:28:52;23.00;45.70
12604;DHT22;6367;52.508;13.284;2023-06-04T08:31:18;23.00;45.50
12604;DHT22;6367;52.508;13.284;2023-06-04T08:33:46;23.10;46.00
12604;DHT22;6367;52.508;13.284;2023-06-04T08:36:13;23.20;46.10
12604;DHT22;6367;52.508;13.284;2023-06-04T08:38:38;23.30;45.30
12604;DHT22;6367;52.508;13.284;2023-06-04T08:41:15;23.30;45.50
12604;DHT22;6367;52.508;13.284;2023-06-04T08:43:42;23.40;45.00
12604;DHT22;6367;52.508;13.284;2023-06-04T08:46:09;23.50;44.30
12604;DHT22;6367;52.508;13.284;2023-06-04T08:48:37;23.50;44.60
12604;DHT22;6367;52.508;13.284;2023-06-04T08:51:06;23.40;44.90
12604;DHT22;6367;52.508;13.284;2023-06-04T08:53:35;23.50;44.80
12604;DHT22;6367;52.508;13.284;2023-06-04T08:56:02;23.50;44.70
12604;DHT22;6367;52.508;13.284;2023-06-04T08:58:31;23.50;45.70
12604;DHT22;6367;52.508;13.284;2023-06-04T09:00:59;23.40;45.50
12604;DHT22;6367;52.508;13.284;2023-06-04T09:03:26;23.60;45.80
12604;DHT22;6367;52.508;13.284;2023-06-04T09:05:52;23.60;45.90
12604;DHT22;6367;52.508;13.284;2023-06-04T09:08:19;23.80;45.70
12604;DHT22;6367;52.508;13.284;2023-06-04T09:10:47;23.90;45.40
12604;DHT22;6367;52.508;13.284;2023-06-04T09:13:17;24.10;45.10
12604;DHT22;6367;52.508;13.284;2023-06-04T09:15:44;24.20;44.80
12604;DHT22;6367;52.508;13.284;2023-06-04T09:18:11;24.20;44.30
12604;DHT22;6367;52.508;13.284;2023-06-04T09:20:37;24.30;44.50
12604;DHT22;6367;52.508;13.284;2023-06-04T09:23:13;24.50;43.40
12604;DHT22;6367;52.508;13.284;2023-06-04T09:25:42;24.50;44.10
12604;DHT22;6367;52.508;13.284;2023-06-04T09:28:11;24.50;43.40
12604;DHT22;6367;52.508;13.284;2023-06-04T09:30:37;24.50;43.60
12604;DHT22;6367;52.508;13.284;2023-06-04T09:33:09;24.60;43.40
12604;DHT22;6367;52.508;13.284;2023-06-04T09:35:34;24.50;43.80
12604;DHT22;6367;52.508;13.284;2023-06-04T09:38:00;24.40;44.00
12604;DHT22;6367;52.508;13.284;2023-06-04T09:40:35;24.50;43.60
12604;DHT22;6367;52.508;13.284;2023-06-04T09:43:02;24.60;44.30
12604;DHT22;6367;52.508;13.284;2023-06-04T09:45:33;24.70;45.20
12604;DHT22;6367;52.508;13.284;2023-06-04T09:47:59;24.70;43.90
12604;DHT22;6367;52.508;13.284;2023-06-04T09:50:26;24.80;44.30
12604;DHT22;6367;52.508;13.284;2023-06-04T09:52:53;24.80;44.50
12604;DHT22;6367;52.508;13.284;2023-06-04T09:55:19;24.90;43.70
12604;DHT22;6367;52.508;13.284;2023-06-04T09:57:49;24.80;43.80
12604;DHT22;6367;52.508;13.284;2023-06-04T10:00:22;24.90;44.10
12604;DHT22;6367;52.508;13.284;2023-06-04T10:02:56;24.90;42.70
12604;DHT22;6367;52.508;13.284;2023-06-04T10:05:22;24.90;43.40
12604;DHT22;6367;52.508;13.284;2023-06-04T10:07:51;24.90;43.50
12604;DHT22;6367;52.508;13.284;2023-06-04T10:10:21;24.90;44.00
12604;DHT22;6367;52.508;13.284;2023-06-04T10:13:00;24.80;43.10
12604;DHT22;6367;52.508;13.284;2023-06-04T10:15:28;24.90;43.40
12604;DHT22;6367;52.508;13.284;2023-06-04T10:17:55;25.00;42.90
12604;DHT22;6367;52.508;13.284;2023-06-04T10:20:21;25.00;42.10
12604;DHT22;6367;52.508;13.284;2023-06-04T10:22:48;25.00;42.00
12604;DHT22;6367;52.508;13.284;2023-06-04T10:25:14;25.00;42.60
12604;DHT22;6367;52.508;13.284;2023-06-04T10:27:41;25.00;42.50
12604;DHT22;6367;52.508;13.284;2023-06-04T10:30:07;25.00;42.30
12604;DHT22;6367;52.508;13.284;2023-06-04T10:32:34;25.10;42.60
12604;DHT22;6367;52.508;13.284;2023-06-04T10:35:04;25.20;42.20
12604;DHT22;6367;52.508;13.284;2023-06-04T10:37:32;25.30;42.00
12604;DHT22;6367;52.508;13.284;2023-06-04T10:39:57;25.30;41.40
12604;DHT22;6367;52.508;13.284;2023-06-04T10:42:24;25.00;41.70
12604;DHT22;6367;52.508;13.284;2023-06-04T10:44:54;25.00;42.00
12604;DHT22;6367;52.508;13.284;2023-06-04T10:47:24;25.00;41.70
12604;DHT22;6367;52.508;13.284;2023-06-04T10:49:51;25.00;41.60
12604;DHT22;6367;52.508;13.284;2023-06-04T10:52:17;25.00;41.80
12604;DHT22;6367;52.508;13.284;2023-06-04T10:54:44;24.90;41.70
12604;DHT22;6367;52.508;13.284;2023-06-04T10:57:12;24.20;41.30
12604;DHT22;6367;52.508;13.284;2023-06-04T10:59:38;24.90;42.40
12604;DHT22;6367;52.508;13.284;2023-06-04T11:02:08;24.90;42.60
12604;DHT22;6367;52.508;13.284;2023-06-04T11:04:35;25.10;41.70
12604;DHT22;6367;52.508;13.284;2023-06-04T11:07:05;25.10;41.70
12604;DHT22;6367;52.508;13.284;2023-06-04T11:09:52;25.10;42.70
12604;DHT22;6367;52.508;13.284;2023-06-04T11:12:18;25.30;42.80
12604;DHT22;6367;52.508;13.284;2023-06-04T11:14:57;25.20;42.50
12604;DHT22;6367;52.508;13.284;2023-06-04T11:17:23;25.30;42.20
12604;DHT22;6367;52.508;13.284;2023-06-04T11:19:49;25.40;41.90
12604;DHT22;6367;52.508;13.284;2023-06-04T11:22:15;25.50;40.60
12604;DHT22;6367;52.508;13.284;2023-06-04T11:24:40;25.50;42.00
12604;DHT22;6367;52.508;13.284;2023-06-04T11:27:09;25.60;41.30
12604;DHT22;6367;52.508;13.284;2023-06-04T11:29:36;25.70;40.70
12604;DHT22;6367;52.508;13.284;2023-06-04T11:32:02;25.70;39.70
12604;DHT22;6367;52.508;13.284;2023-06-04T11:34:29;25.60;41.50
12604;DHT22;6367;52.508;13.284;2023-06-04T11:36:55;25.70;40.30
12604;DHT22;6367;52.508;13.284;2023-06-04T11:39:34;25.70;41.90
12604;DHT22;6367;52.508;13.284;2023-06-04T11:42:04;25.80;39.90
12604;DHT22;6367;52.508;13.284;2023-06-04T11:44:30;25.70;42.10
12604;DHT22;6367;52.508;13.284;2023-06-04T11:46:56;25.80;41.70
12604;DHT22;6367;52.508;13.284;2023-06-04T11:49:22;25.90;40.20
12604;DHT22;6367;52.508;13.284;2023-06-04T11:51:49;25.90;41.50
12604;DHT22;6367;52.508;13.284;2023-06-04T11:54:16;26.00;41.20
12604;DHT22;6367;52.508;13.284;2023-06-04T11:56:42;26.00;41.40
12604;DHT22;6367;52.508;13.284;2023-06-04T11:59:15;26.00;40.90
12604;DHT22;6367;52.508;13.284;2023-06-04T12:01:42;26.10;40.80
12604;DHT22;6367;52.508;13.284;2023-06-04T12:04:12;26.10;40.00
12604;DHT22;6367;52.508;13.284;2023-06-04T12:06:38;26.10;40.40
12604;DHT22;6367;52.508;13.284;2023-06-04T12:09:04;26.30;40.30
12604;DHT22;6367;52.508;13.284;2023-06-04T12:11:34;26.30;40.10
12604;DHT22;6367;52.508;13.284;2023-06-04T12:14:04;26.40;39.00
12604;DHT22;6367;52.508;13.284;2023-06-04T12:16:30;26.40;39.50
12604;DHT22;6367;52.508;13.284;2023-06-04T12:19:07;26.50;39.40
12604;DHT22;6367;52.508;13.284;2023-06-04T12:21:33;26.50;39.20
12604;DHT22;6367;52.508;13.284;2023-06-04T12:24:09;26.30;40.60
12604;DHT22;6367;52.508;13.284;2023-06-04T12:26:35;26.30;41.80
12604;DHT22;6367;52.508;13.284;2023-06-04T12:29:12;26.20;40.70
12604;DHT22;6367;52.508;13.284;2023-06-04T12:31:43;26.40;40.80
12604;DHT22;6367;52.508;13.284;2023-06-04T12:34:11;26.50;40.80
12604;DHT22;6367;52.508;13.284;2023-06-04T12:36:37;26.60;41.00
12604;DHT22;6367;52.508;13.284;2023-06-04T12:39:04;26.60;40.40
12604;DHT22;6367;52.508;13.284;2023-06-04T12:41:31;26.60;42.40
12604;DHT22;6367;52.508;13.284;2023-06-04T12:43:57;26.60;41.20
12604;DHT22;6367;52.508;13.284;2023-06-04T12:46:23;26.60;40.70
12604;DHT22;6367;52.508;13.284;2023-06-04T12:48:53;26.50;40.90
12604;DHT22;6367;52.508;13.284;2023-06-04T12:51:19;26.70;41.10
12604;DHT22;6367;52.508;13.284;2023-06-04T12:53:46;26.80;40.30
12604;DHT22;6367;52.508;13.284;2023-06-04T12:56:12;26.70;40.00
12604;DHT22;6367;52.508;13.284;2023-06-04T12:58:38;26.80;39.20
12604;DHT22;6367;52.508;13.284;2023-06-04T13:01:04;26.90;38.60
12604;DHT22;6367;52.508;13.284;2023-06-04T13:03:31;26.90;39.10
12604;DHT22;6367;52.508;13.284;2023-06-04T13:05:57;26.90;40.40
12604;DHT22;6367;52.508;13.284;2023-06-04T13:08:23;26.90;40.00
12604;DHT22;6367;52.508;13.284;2023-06-04T13:10:52;26.90;39.80
12604;DHT22;6367;52.508;13.284;2023-06-04T13:13:19;26.90;40.20
12604;DHT22;6367;52.508;13.284;2023-06-04T13:15:45;26.90;40.40
12604;DHT22;6367;52.508;13.284;2023-06-04T13:18:11;26.90;40.60
12604;DHT22;6367;52.508;13.284;2023-06-04T13:20:39;27.00;40.20
12604;DHT22;6367;52.508;13.284;2023-06-04T13:23:05;27.00;40.40
12604;DHT22;6367;52.508;13.284;2023-06-04T13:25:31;27.00;40.20
12604;DHT22;6367;52.508;13.284;2023-06-04T13:28:04;27.10;39.10
12604;DHT22;6367;52.508;13.284;2023-06-04T13:30:30;27.20;39.10
12604;DHT22;6367;52.508;13.284;2023-06-04T13:32:56;27.10;39.40
12604;DHT22;6367;52.508;13.284;2023-06-04T13:35:24;27.10;40.70
12604;DHT22;6367;52.508;13.284;2023-06-04T13:37:50;27.00;38.90
12604;DHT22;6367;52.508;13.284;2023-06-04T13:40:16;27.00;40.00
12604;DHT22;6367;52.508;13.284;2023-06-04T13:42:41;27.10;38.30
12604;DHT22;6367;52.508;13.284;2023-06-04T13:45:11;27.00;40.30
12604;DHT22;6367;52.508;13.284;2023-06-04T13:47:36;26.90;40.80
12604;DHT22;6367;52.508;13.284;2023-06-04T13:50:03;26.80;40.20
12604;DHT22;6367;52.508;13.284;2023-06-04T13:52:29;26.90;41.30
12604;DHT22;6367;52.508;13.284;2023-06-04T13:54:56;26.90;39.40
12604;DHT22;6367;52.508;13.284;2023-06-04T13:57:22;27.00;38.70
12604;DHT22;6367;52.508;13.284;2023-06-04T13:59:49;26.90;39.00
12604;DHT22;6367;52.508;13.284;2023-06-04T14:02:14;26.80;39.20
12604;DHT22;6367;52.508;13.284;2023-06-04T14:04:40;26.80;38.90
12604;DHT22;6367;52.508;13.284;2023-06-04T14:07:06;26.70;41.10
12604;DHT22;6367;52.508;13.284;2023-06-04T14:09:32;26.80;38.80
12604;DHT22;6367;52.508;13.284;2023-06-04T14:11:58;26.70;39.60
12604;DHT22;6367;52.508;13.284;2023-06-04T14:14:24;26.80;39.20
12604;DHT22;6367;52.508;13.284;2023-06-04T14:16:50;26.60;40.70
12604;DHT22;6367;52.508;13.284;2023-06-04T14:19:16;26.60;41.30
12604;DHT22;6367;52.508;13.284;2023-06-04T14:21:43;26.60;41.40
12604;DHT22;6367;52.508;13.284;2023-06-04T14:24:08;26.70;40.70
12604;DHT22;6367;52.508;13.284;2023-06-04T14:26:35;26.80;38.80
12604;DHT22;6367;52.508;13.284;2023-06-04T14:29:01;26.70;39.20
12604;DHT22;6367;52.508;13.284;2023-06-04T14:31:27;26.60;38.40
12604;DHT22;6367;52.508;13.284;2023-06-04T14:33:53;26.50;38.80
12604;DHT22;6367;52.508;13.284;2023-06-04T14:36:18;26.40;38.40
12604;DHT22;6367;52.508;13.284;2023-06-04T14:38:44;26.40;38.90
12604;DHT22;6367;52.508;13.284;2023-06-04T14:41:10;26.40;39.20
12604;DHT22;6367;52.508;13.284;2023-06-04T14:43:36;26.30;39.30
12604;DHT22;6367;52.508;13.284;2023-06-04T14:46:02;26.40;38.90
12604;DHT22;6367;52.508;13.284;2023-06-04T14:48:27;26.20;38.80
12604;DHT22;6367;52.508;13.284;2023-06-04T14:50:53;26.20;38.80
12604;DHT22;6367;52.508;13.284;2023-06-04T14:53:21;26.20;38.80
12604;DHT22;6367;52.508;13.284;2023-06-04T14:55:47;26.10;38.70
12604;DHT22;6367;52.508;13.284;2023-06-04T14:58:13;26.10;39.20
12604;DHT22;6367;52.508;13.284;2023-06-04T15:00:39;26.00;39.00
12604;DHT22;6367;52.508;13.284;2023-06-04T15:03:05;26.00;39.20
12604;DHT22;6367;52.508;13.284;2023-06-04T15:05:31;26.00;39.60
12604;DHT22;6367;52.508;13.284;2023-06-04T15:07:57;25.90;39.90
12604;DHT22;6367;52.508;13.284;2023-06-04T15:10:24;26.00;40.20
12604;DHT22;6367;52.508;13.284;2023-06-04T15:12:50;26.00;40.60
12604;DHT22;6367;52.508;13.284;2023-06-04T15:15:16;26.10;40.20
12604;DHT22;6367;52.508;13.284;2023-06-04T15:17:41;26.00;40.50
12604;DHT22;6367;52.508;13.284;2023-06-04T15:20:07;26.00;40.70
12604;DHT22;6367;52.508;13.284;2023-06-04T15:22:33;26.00;40.70
12604;DHT22;6367;52.508;13.284;2023-06-04T15:24:59;26.10;40.70
12604;DHT22;6367;52.508;13.284;2023-06-04T15:27:25;26.20;41.10
12604;DHT22;6367;52.508;13.284;2023-06-04T15:29:51;26.30;40.40